Terminal Aerodrome Forecast
Issued by NWS

Home | Current Version | Previous Version | Text Only | Print | Product List | Glossary On
Versions: 1 2 3 4 5 6 7 8 9 10 11 12 13 14 15 16 17 18
372
FTUS46 KSEW 192330
TAFCLM
TAF
KCLM 192330Z 2000/2024 10005KT P6SM -RA OVC018
     FM200300 20003KT P6SM VCSH OVC019
     FM201800 09004KT P6SM OVC060=

USA.gov is the U.S. government's official web portal to all federal, state and local government web resources and services.